createdAt,value
2016-12-27T00:00:45.944Z,9.53
2016-12-27T00:01:55.962Z,9.56
2016-12-27T00:03:05.997Z,9.57
2016-12-27T00:04:16.325Z,9.45
2016-12-27T00:05:26.362Z,9.5
2016-12-27T00:06:36.698Z,9.52
2016-12-27T00:07:46.706Z,9.44
2016-12-27T00:08:57.037Z,9.41
2016-12-27T00:10:07.094Z,9.41
2016-12-27T00:11:16.815Z,9.38
2016-12-27T00:12:26.832Z,9.3
2016-12-27T00:13:36.853Z,9.41
2016-12-27T00:14:46.870Z,9.38
2016-12-27T00:15:56.886Z,9.21
2016-12-27T00:17:07.230Z,9.35
2016-12-27T00:18:17.566Z,9.29
2016-12-27T00:19:27.903Z,9.3
2016-12-27T00:20:38.221Z,9.21
2016-12-27T00:21:48.251Z,9.2
2016-12-27T00:22:58.582Z,9.24
2016-12-27T00:24:08.322Z,9.21
2016-12-27T00:25:18.339Z,9.23
2016-12-27T00:26:28.353Z,9.12
2016-12-27T00:27:38.367Z,9.14
2016-12-27T00:28:48.376Z,9.09
2016-12-27T00:29:58.101Z,9.16
2016-12-27T00:31:08.133Z,9.14
2016-12-27T00:32:18.465Z,9.2
2016-12-27T00:33:28.180Z,9.04
2016-12-27T00:34:38.512Z,9.04
2016-12-27T00:35:48.538Z,9.08
2016-12-27T00:36:58.546Z,9.04
2016-12-27T00:38:08.599Z,9.09
2016-12-27T00:39:18.939Z,9.03
2016-12-27T00:40:28.636Z,9.03
2016-12-27T00:41:38.654Z,9.03
2016-12-27T00:42:48.700Z,9.03
2016-12-27T00:43:58.715Z,8.9
2016-12-27T00:45:08.737Z,8.9
2016-12-27T00:46:19.073Z,8.9
2016-12-27T00:47:29.095Z,8.92
2016-12-27T00:48:38.793Z,8.94
2016-12-27T00:49:48.533Z,8.94
2016-12-27T00:50:58.851Z,8.9
2016-12-27T00:52:09.188Z,8.83
2016-12-27T00:53:19.533Z,8.8
2016-12-27T00:54:29.546Z,8.86
2016-12-27T00:55:39.892Z,8.79
2016-12-27T00:56:49.937Z,8.71
2016-12-27T00:58:00.276Z,8.76
2016-12-27T00:59:10.287Z,8.87
2016-12-27T01:00:19.998Z,8.83
2016-12-27T01:01:30.017Z,8.72
2016-12-27T01:02:39.730Z,8.74
2016-12-27T01:03:49.753Z,8.76
2016-12-27T01:05:00.087Z,8.64
2016-12-27T01:06:10.421Z,8.72
2016-12-27T01:07:20.487Z,8.72
2016-12-27T01:08:30.515Z,8.68
2016-12-27T01:09:40.546Z,8.65
2016-12-27T01:10:50.554Z,8.64
2016-12-27T01:12:00.884Z,8.65
2016-12-27T01:13:10.904Z,8.67
2016-12-27T01:14:21.231Z,8.62
2016-12-27T01:15:31.594Z,8.6
2016-12-27T01:16:41.951Z,8.5
2016-12-27T01:17:51.652Z,8.6
2016-12-27T01:19:02.049Z,8.58
2016-12-27T01:20:12.102Z,8.6
2016-12-27T01:21:22.128Z,8.54
2016-12-27T01:22:32.139Z,8.46
2016-12-27T01:23:42.472Z,8.58
2016-12-27T01:24:52.485Z,8.57
2016-12-27T01:26:02.826Z,8.44
2016-12-27T01:27:12.842Z,8.43
2016-12-27T01:28:22.868Z,8.52
2016-12-27T01:29:33.227Z,8.5
2016-12-27T01:30:43.557Z,8.46
2016-12-27T01:31:53.899Z,8.44
2016-12-27T01:33:04.231Z,8.43
2016-12-27T01:34:14.558Z,8.39
2016-12-27T01:35:24.578Z,8.5
2016-12-27T01:36:34.586Z,8.46
2016-12-27T01:37:44.598Z,8.42
2016-12-27T01:38:54.943Z,8.4
2016-12-27T01:40:04.973Z,8.42
2016-12-27T01:41:14.998Z,8.35
2016-12-27T01:42:25.376Z,8.39
2016-12-27T01:43:35.071Z,8.35
2016-12-27T01:44:45.397Z,8.24
2016-12-27T01:45:55.720Z,8.34
2016-12-27T01:47:05.746Z,8.28
2016-12-27T01:48:15.769Z,8.36
2016-12-27T01:49:26.094Z,8.21
2016-12-27T01:50:36.422Z,8.29
2016-12-27T01:51:46.119Z,8.22
2016-12-27T01:52:55.814Z,8.17
2016-12-27T01:54:05.836Z,8.22
2016-12-27T01:55:15.858Z,8.17
2016-12-27T01:56:26.213Z,8.16
2016-12-27T01:57:36.563Z,8.25
2016-12-27T01:58:46.273Z,8.19
2016-12-27T01:59:56.601Z,8.19
2016-12-27T02:01:06.613Z,8.14
2016-12-27T02:02:16.649Z,8.19
2016-12-27T02:03:26.695Z,8.14
2016-12-27T02:04:36.708Z,8.19
2016-12-27T02:05:47.092Z,8.14
2016-12-27T02:06:57.117Z,8.26
2016-12-27T02:08:07.148Z,8.22
2016-12-27T02:09:17.474Z,8.14
2016-12-27T02:10:27.490Z,8.21
2016-12-27T02:11:37.813Z,8.17
2016-12-27T02:12:47.835Z,8.24
2016-12-27T02:13:57.863Z,8.28
2016-12-27T02:15:07.568Z,8.19
2016-12-27T02:16:17.924Z,8.24
2016-12-27T02:17:27.946Z,8.16
2016-12-27T02:18:37.958Z,8.31
2016-12-27T02:19:47.664Z,8.16
2016-12-27T02:20:58.012Z,8.26
2016-12-27T02:22:08.027Z,8.19
2016-12-27T02:23:18.411Z,8.17
2016-12-27T02:24:28.442Z,8.26
2016-12-27T02:25:38.149Z,8.19
2016-12-27T02:26:48.185Z,8.22
2016-12-27T02:27:57.934Z,8.21
2016-12-27T02:29:07.648Z,8.25
2016-12-27T02:30:17.981Z,8.24
2016-12-27T02:31:27.686Z,8.26
2016-12-27T02:32:38.011Z,8.26
2016-12-27T02:33:48.024Z,8.28
2016-12-27T02:34:58.346Z,8.25
2016-12-27T02:36:08.674Z,8.29
2016-12-27T02:37:19.006Z,8.14
2016-12-27T02:38:29.329Z,8.19
2016-12-27T02:39:39.655Z,8.21
2016-12-27T02:40:49.981Z,8.31
2016-12-27T02:41:59.679Z,8.11
2016-12-27T02:43:09.716Z,8.17
2016-12-27T02:44:20.062Z,8.16
2016-12-27T02:45:30.089Z,8.14
2016-12-27T02:46:40.134Z,8.21
2016-12-27T02:47:50.142Z,8.1
2016-12-27T02:49:00.165Z,8.17
2016-12-27T02:50:10.199Z,8.09
2016-12-27T02:51:20.206Z,8.04
2016-12-27T02:52:30.528Z,7.99
2016-12-27T02:53:40.560Z,8.06
2016-12-27T02:54:50.880Z,8.07
2016-12-27T02:56:00.888Z,8.01
2016-12-27T02:57:10.915Z,8.01
2016-12-27T02:58:20.921Z,8.06
2016-12-27T02:59:30.931Z,7.91
2016-12-27T03:00:40.964Z,8.06
2016-12-27T03:01:50.972Z,7.93
2016-12-27T03:33:16.001Z,5.23
2016-12-27T03:34:26.308Z,5.2
2016-12-27T03:35:36.005Z,5.26
2016-12-27T03:36:46.329Z,5.37
2016-12-27T03:37:56.349Z,5.45
2016-12-27T03:39:06.369Z,5.55
2016-12-27T03:40:16.384Z,5.67
2016-12-27T03:41:26.385Z,5.82
2016-12-27T03:42:36.401Z,5.99
2016-12-27T03:43:46.715Z,6.13
2016-12-27T03:44:56.730Z,6.33
2016-12-27T03:46:06.751Z,6.46
2016-12-27T03:47:16.453Z,6.55
2016-12-27T03:48:26.775Z,6.72
2016-12-27T03:49:36.477Z,6.88
2016-12-27T03:50:46.801Z,6.98
2016-12-27T03:51:56.858Z,7.08
2016-12-27T03:53:07.191Z,7.18
2016-12-27T03:54:17.556Z,7.22
2016-12-27T03:55:27.888Z,7.33
2016-12-27T03:56:37.897Z,7.37
2016-12-27T03:57:48.262Z,7.44
2016-12-27T03:58:58.583Z,7.52
2016-12-27T04:00:08.611Z,7.49
2016-12-27T04:01:18.317Z,7.56
2016-12-27T04:02:28.699Z,7.64
2016-12-27T04:03:38.709Z,7.63
2016-12-27T04:04:48.419Z,7.71
2016-12-27T04:05:58.435Z,7.77
2016-12-27T04:07:08.455Z,7.85
2016-12-27T04:08:18.461Z,7.75
2016-12-27T04:09:28.798Z,7.82
2016-12-27T04:10:38.814Z,7.85
2016-12-27T04:11:48.840Z,7.85
2016-12-27T04:12:58.862Z,7.82
2016-12-27T04:14:08.875Z,7.83
2016-12-27T04:15:18.896Z,7.82
2016-12-27T04:16:29.231Z,7.83
2016-12-27T04:17:38.935Z,7.83
2016-12-27T04:18:49.287Z,7.85
2016-12-27T04:19:58.995Z,7.83
2016-12-27T04:21:09.339Z,7.83
2016-12-27T04:22:19.672Z,7.92
2016-12-27T04:23:30.000Z,7.91
2016-12-27T04:24:40.020Z,7.88
2016-12-27T04:25:50.048Z,7.92
2016-12-27T04:27:00.054Z,7.93
2016-12-27T04:28:10.087Z,7.85
2016-12-27T04:29:19.789Z,7.89
2016-12-27T04:30:29.497Z,7.88
2016-12-27T04:31:39.839Z,7.91
2016-12-27T04:32:49.238Z,7.83
2016-12-27T04:33:59.250Z,7.85
2016-12-27T04:35:09.632Z,7.8
2016-12-27T04:36:19.336Z,7.82
2016-12-27T04:37:29.367Z,7.88
2016-12-27T04:38:39.369Z,7.86
2016-12-27T04:39:49.076Z,7.85
2016-12-27T04:40:59.092Z,7.8
2016-12-27T04:42:09.108Z,7.82
2016-12-27T04:43:19.410Z,7.83
2016-12-27T04:44:29.108Z,7.77
2016-12-27T04:45:39.434Z,7.74
2016-12-27T04:46:49.443Z,7.71
2016-12-27T04:47:59.449Z,7.75
2016-12-27T04:49:09.459Z,7.75
2016-12-27T04:50:19.788Z,7.74
2016-12-27T04:51:30.121Z,7.71
2016-12-27T04:52:40.464Z,7.73
2016-12-27T04:53:50.172Z,7.71
2016-12-27T04:55:00.182Z,7.77
2016-12-27T04:56:10.494Z,7.7
2016-12-27T04:57:20.838Z,7.78
2016-12-27T04:58:31.159Z,7.73
2016-12-27T04:59:41.169Z,7.68
2016-12-27T05:00:50.870Z,7.74
2016-12-27T05:02:00.868Z,7.71
2016-12-27T05:03:10.931Z,7.71
2016-12-27T05:04:20.641Z,7.73
2016-12-27T05:05:30.959Z,7.73
2016-12-27T05:06:40.972Z,7.68
2016-12-27T05:07:50.992Z,7.74
2016-12-27T05:09:01.330Z,7.68
2016-12-27T05:10:11.655Z,7.67
2016-12-27T05:11:21.377Z,7.67
2016-12-27T05:12:31.724Z,7.67
2016-12-27T05:13:41.731Z,7.68
2016-12-27T05:14:52.068Z,7.63
2016-12-27T05:16:02.079Z,7.64
2016-12-27T05:17:12.107Z,7.67
2016-12-27T05:18:22.133Z,7.64
2016-12-27T05:19:32.144Z,7.54
2016-12-27T05:20:41.892Z,7.58
2016-12-27T05:21:52.205Z,7.59
2016-12-27T05:23:02.543Z,7.59
2016-12-27T05:24:12.241Z,7.59
2016-12-27T05:25:22.576Z,7.61
2016-12-27T05:26:31.983Z,7.59
2016-12-27T05:27:42.309Z,7.59
2016-12-27T05:28:52.651Z,7.59
2016-12-27T05:30:02.063Z,7.58
2016-12-27T05:31:12.075Z,7.59
2016-12-27T05:32:22.100Z,7.61
2016-12-27T05:33:32.428Z,7.63
2016-12-27T05:34:42.782Z,7.7
2016-12-27T05:35:52.796Z,7.61
2016-12-27T05:37:02.815Z,7.61
2016-12-27T05:38:12.833Z,7.64
2016-12-27T05:39:22.561Z,7.58
2016-12-27T05:40:32.898Z,7.59
2016-12-27T05:41:43.220Z,7.59
2016-12-27T05:42:53.232Z,7.58
2016-12-27T05:44:03.543Z,7.58
2016-12-27T05:45:13.884Z,7.56
2016-12-27T05:46:23.914Z,7.58
2016-12-27T05:47:34.244Z,7.58
2016-12-27T05:48:44.304Z,7.61
2016-12-27T05:49:54.627Z,7.59
2016-12-27T05:51:04.318Z,7.54
2016-12-27T05:52:14.636Z,7.55
2016-12-27T05:53:24.341Z,7.56
2016-12-27T05:54:34.671Z,7.63
2016-12-27T05:55:44.995Z,7.63
2016-12-27T05:56:55.066Z,7.63
2016-12-27T05:58:05.387Z,7.58
2016-12-27T05:59:15.409Z,7.58
2016-12-27T06:00:25.736Z,7.63
2016-12-27T06:01:35.449Z,7.55
2016-12-27T06:02:44.830Z,7.59
2016-12-27T06:03:54.537Z,7.63
2016-12-27T06:05:04.560Z,7.59
2016-12-27T06:06:14.578Z,7.55
2016-12-27T06:07:24.293Z,7.54
2016-12-27T06:08:34.307Z,7.52
2016-12-27T06:09:44.334Z,7.55
2016-12-27T06:10:54.653Z,7.55
2016-12-27T06:12:04.387Z,7.64
2016-12-27T06:13:14.717Z,7.67
2016-12-27T06:14:24.419Z,7.56
2016-12-27T06:15:34.760Z,7.52
2016-12-27T06:16:44.779Z,7.52
2016-12-27T06:17:54.804Z,7.49
2016-12-27T06:19:04.498Z,7.55
2016-12-27T06:20:14.213Z,7.63
2016-12-27T06:21:24.529Z,7.51
2016-12-27T06:22:34.862Z,7.54
2016-12-27T06:23:45.195Z,7.61
2016-12-27T06:24:55.521Z,7.52
2016-12-27T06:26:05.221Z,7.49
2016-12-27T06:27:15.243Z,7.49
2016-12-27T06:28:25.250Z,7.47
2016-12-27T06:29:35.263Z,7.48
2016-12-27T06:30:45.595Z,7.54
2016-12-27T06:31:55.612Z,7.54
2016-12-27T06:33:05.938Z,7.49
2016-12-27T06:34:15.965Z,7.49
2016-12-27T06:35:26.288Z,7.51
2016-12-27T06:36:36.609Z,7.49
2016-12-27T06:37:46.316Z,7.54
2016-12-27T06:38:56.044Z,7.54
2016-12-27T06:40:06.380Z,7.51
2016-12-27T06:41:16.087Z,7.47
2016-12-27T06:42:26.440Z,7.47
2016-12-27T06:43:36.756Z,7.48
2016-12-27T06:44:46.796Z,7.47
2016-12-27T06:45:56.829Z,7.45
2016-12-27T06:47:06.570Z,7.51
2016-12-27T06:48:16.297Z,7.44
2016-12-27T06:49:26.311Z,7.45
2016-12-27T06:50:36.046Z,7.56
2016-12-27T06:51:46.407Z,7.52
2016-12-27T06:52:56.729Z,7.51
2016-12-27T06:54:06.435Z,7.51
2016-12-27T06:55:16.487Z,7.58
2016-12-27T06:56:26.809Z,7.56
2016-12-27T06:57:37.140Z,7.52
2016-12-27T06:58:47.472Z,7.54
2016-12-27T06:59:57.799Z,7.49
2016-12-27T07:01:07.816Z,7.56
2016-12-27T07:02:17.844Z,7.58
2016-12-27T07:03:28.169Z,7.59
2016-12-27T07:04:38.191Z,7.56
2016-12-27T07:05:48.207Z,7.61
2016-12-27T07:06:58.236Z,7.71
2016-12-27T07:08:08.250Z,7.73
2016-12-27T07:09:18.284Z,7.71
2016-12-27T07:10:28.306Z,7.74
2016-12-27T07:11:38.626Z,7.82
2016-12-27T07:12:48.346Z,7.85
2016-12-27T07:13:58.688Z,7.89
2016-12-27T07:15:08.712Z,7.88
2016-12-27T07:16:18.736Z,7.89
2016-12-27T07:17:28.759Z,7.92
2016-12-27T07:18:38.496Z,7.99
2016-12-27T07:19:48.516Z,8.01
2016-12-27T07:20:58.227Z,8.01
2016-12-27T07:22:08.582Z,8.01
2016-12-27T07:23:18.291Z,8.13
2016-12-27T07:24:28.311Z,8.1
2016-12-27T07:25:38.329Z,8.14
2016-12-27T07:26:48.362Z,8.21
2016-12-27T07:27:58.694Z,8.19
2016-12-27T07:29:08.404Z,8.26
2016-12-27T07:30:18.737Z,8.29
2016-12-27T07:31:28.773Z,8.29
2016-12-27T07:32:38.828Z,8.32
2016-12-27T07:33:48.851Z,8.43
2016-12-27T07:34:59.218Z,8.46
2016-12-27T07:36:09.240Z,8.44
2016-12-27T07:37:18.943Z,8.52
2016-12-27T07:38:28.973Z,8.62
2016-12-27T07:39:38.995Z,8.67
2016-12-27T07:40:49.326Z,8.6
2016-12-27T07:41:59.337Z,8.69
2016-12-27T07:43:09.354Z,8.67
2016-12-27T07:44:19.378Z,8.6
2016-12-27T07:45:29.420Z,8.69
2016-12-27T07:46:39.435Z,8.64
2016-12-27T07:47:49.451Z,8.65
2016-12-27T07:48:59.800Z,8.65
2016-12-27T07:50:10.180Z,8.57
2016-12-27T07:51:19.883Z,8.62
2016-12-27T07:52:29.888Z,8.57
2016-12-27T07:53:39.597Z,8.62
2016-12-27T07:54:49.917Z,8.61
2016-12-27T07:56:00.240Z,8.6
2016-12-27T07:57:09.955Z,8.62
2016-12-27T07:58:20.306Z,8.5
2016-12-27T07:59:30.328Z,8.54
2016-12-27T08:00:40.665Z,8.62
2016-12-27T08:01:50.375Z,8.53
2016-12-27T08:03:00.423Z,8.65
2016-12-27T08:04:10.780Z,8.69
2016-12-27T08:05:20.809Z,8.69
2016-12-27T08:06:30.836Z,8.71
2016-12-27T08:07:40.864Z,8.79
2016-12-27T08:08:51.209Z,8.8
2016-12-27T08:10:01.536Z,8.9
2016-12-27T08:11:11.245Z,8.95
2016-12-27T08:12:21.532Z,8.92
2016-12-27T08:13:31.870Z,9.11
2016-12-27T08:14:42.222Z,9.08
2016-12-27T08:15:52.276Z,9.14
2016-12-27T08:17:01.979Z,9.21
2016-12-27T08:18:11.686Z,9.23
2016-12-27T08:19:22.007Z,9.2
2016-12-27T08:20:32.336Z,9.23
2016-12-27T08:21:42.046Z,9.37
2016-12-27T08:22:52.057Z,9.38
2016-12-27T08:24:02.392Z,9.41
2016-12-27T08:25:12.713Z,9.29
2016-12-27T08:26:22.432Z,9.37
2016-12-27T08:27:32.141Z,9.48
2016-12-27T08:28:41.863Z,9.48
2016-12-27T08:29:51.877Z,9.48
2016-12-27T08:31:02.233Z,9.55
2016-12-27T08:32:11.931Z,9.53
2016-12-27T08:33:22.285Z,9.53
2016-12-27T08:34:32.605Z,9.42
2016-12-27T08:35:42.621Z,9.52
2016-12-27T08:36:52.648Z,9.55
2016-12-27T08:38:02.970Z,9.55
2016-12-27T08:39:13.320Z,9.59
2016-12-27T08:40:23.065Z,9.57
2016-12-27T08:41:33.404Z,9.57
2016-12-27T08:42:43.428Z,9.64
2016-12-27T08:43:53.749Z,9.64
2016-12-27T08:45:03.780Z,9.77
2016-12-27T08:46:13.809Z,9.74
2016-12-27T08:47:24.143Z,9.81
2016-12-27T08:48:34.161Z,9.71
2016-12-27T08:49:44.483Z,9.81
2016-12-27T08:50:54.838Z,9.84
2016-12-27T08:52:04.857Z,9.84
2016-12-27T08:53:14.873Z,9.84
2016-12-27T08:54:24.891Z,9.95
2016-12-27T08:55:34.946Z,10.1
2016-12-27T08:56:44.963Z,10.08
2016-12-27T08:57:54.983Z,10.28
2016-12-27T08:59:05.002Z,10.33
2016-12-27T09:00:15.334Z,10.36
2016-12-27T09:01:25.358Z,10.33
2016-12-27T09:02:35.687Z,10.36
2016-12-27T09:03:45.723Z,10.41
2016-12-27T09:04:55.124Z,10.44
2016-12-27T09:06:05.446Z,10.46
2016-12-27T09:07:15.177Z,10.35
2016-12-27T09:08:25.520Z,10.32
2016-12-27T09:09:35.243Z,10.39
2016-12-27T09:10:45.588Z,10.33
2016-12-27T09:11:55.922Z,10.31
2016-12-27T09:13:05.977Z,10.31
2016-12-27T09:14:16.019Z,10.2
2016-12-27T09:15:26.026Z,10.18
2016-12-27T09:16:35.741Z,10.15
2016-12-27T09:17:45.449Z,10.11
2016-12-27T09:18:55.805Z,9.99
2016-12-27T09:20:05.522Z,9.96
2016-12-27T09:21:15.548Z,9.92
2016-12-27T09:22:25.885Z,9.98
2016-12-27T09:23:35.601Z,9.89
2016-12-27T09:24:45.306Z,10.02
2016-12-27T09:25:54.705Z,10
2016-12-27T09:27:04.721Z,9.93
2016-12-27T09:28:15.043Z,10.03
2016-12-27T09:29:24.456Z,9.95
2016-12-27T09:30:34.502Z,9.96
2016-12-27T09:31:44.218Z,9.84
2016-12-27T09:32:54.550Z,9.84
2016-12-27T09:34:04.253Z,9.88
2016-12-27T09:35:14.584Z,9.82
2016-12-27T09:36:24.610Z,9.75
2016-12-27T09:37:34.623Z,9.78
2016-12-27T09:38:44.966Z,9.72
2016-12-27T09:39:54.991Z,9.67
2016-12-27T09:41:05.357Z,9.75
2016-12-27T09:42:15.694Z,9.64
2016-12-27T09:43:25.401Z,9.62
2016-12-27T09:44:35.735Z,9.6
2016-12-27T09:45:46.069Z,9.59
2016-12-27T09:46:56.381Z,9.55
2016-12-27T09:48:06.396Z,9.57
2016-12-27T09:49:16.421Z,9.66
2016-12-27T09:50:26.756Z,9.6
2016-12-27T09:51:36.787Z,9.64
2016-12-27T09:52:47.125Z,9.62
2016-12-27T09:53:57.156Z,9.57
2016-12-27T09:55:06.872Z,9.63
2016-12-27T09:56:16.887Z,9.56
2016-12-27T09:57:27.224Z,9.56
2016-12-27T09:58:36.941Z,9.6
2016-12-27T09:59:47.273Z,9.5
2016-12-27T10:00:57.314Z,9.66
2016-12-27T10:02:07.647Z,9.63
2016-12-27T10:03:17.672Z,9.55
2016-12-27T10:04:27.694Z,9.55
2016-12-27T10:05:37.710Z,9.59
2016-12-27T10:06:48.049Z,9.66
2016-12-27T10:07:58.074Z,9.66
2016-12-27T10:09:08.417Z,9.8
2016-12-27T10:10:18.744Z,9.85
2016-12-27T10:11:28.822Z,9.84
2016-12-27T10:12:38.842Z,9.92
2016-12-27T10:13:49.185Z,9.89
2016-12-27T10:14:59.516Z,9.82
2016-12-27T10:16:09.856Z,9.89
2016-12-27T10:17:19.578Z,9.9
2016-12-27T10:18:29.595Z,9.99
2016-12-27T10:19:39.916Z,10.13
2016-12-27T10:20:49.639Z,10.17
2016-12-27T10:21:59.956Z,10.14
2016-12-27T10:23:09.976Z,10.18
2016-12-27T10:24:20.006Z,10.11
2016-12-27T10:25:30.021Z,10.26
2016-12-27T10:26:40.043Z,10.23
2016-12-27T10:27:50.375Z,10.29
2016-12-27T10:29:00.725Z,10.21
2016-12-27T10:30:11.117Z,10.31
2016-12-27T10:31:21.123Z,10.28
2016-12-27T10:32:30.826Z,10.29
2016-12-27T10:33:41.156Z,10.2
2016-12-27T10:34:51.487Z,10.2
2016-12-27T10:36:01.199Z,10.26
2016-12-27T10:37:11.529Z,10.32
2016-12-27T10:38:21.548Z,10.25
2016-12-27T10:39:31.874Z,10.2
2016-12-27T10:40:41.893Z,10.15
2016-12-27T10:41:51.917Z,10.14
2016-12-27T10:43:02.246Z,10.1
2016-12-27T10:44:11.946Z,10.15
2016-12-27T10:45:21.673Z,10.2
2016-12-27T10:46:31.701Z,10.31
2016-12-27T10:47:42.039Z,10.29
2016-12-27T10:48:52.362Z,10.36
2016-12-27T10:50:02.392Z,10.38
2016-12-27T10:51:12.720Z,10.38
2016-12-27T10:52:23.059Z,10.46
2016-12-27T10:53:32.769Z,10.54
2016-12-27T10:54:42.788Z,10.69
2016-12-27T10:55:53.105Z,10.72
2016-12-27T10:57:02.853Z,10.79
2016-12-27T10:58:13.195Z,10.76
2016-12-27T10:59:23.286Z,10.77
2016-12-27T11:00:33.304Z,10.76
2016-12-27T11:01:43.017Z,10.76
2016-12-27T11:02:52.729Z,10.79
2016-12-27T11:04:03.077Z,10.79
2016-12-27T11:05:13.117Z,10.77
2016-12-27T11:06:22.555Z,10.79
2016-12-27T11:07:32.571Z,10.66
2016-12-27T11:08:42.598Z,10.69
2016-12-27T11:09:52.931Z,10.63
2016-12-27T11:11:02.945Z,10.65
2016-12-27T11:12:12.661Z,10.73
2016-12-27T11:13:23.002Z,10.77
2016-12-27T11:14:32.732Z,10.83
2016-12-27T11:15:43.071Z,10.77
2016-12-27T11:16:53.641Z,10.77
2016-12-27T11:18:03.378Z,10.75
2016-12-27T11:19:13.082Z,10.65
2016-12-27T11:20:22.791Z,10.65
2016-12-27T11:21:33.108Z,10.65
2016-12-27T11:22:42.514Z,10.61
2016-12-27T11:23:52.521Z,10.69
2016-12-27T11:25:02.228Z,10.66
2016-12-27T11:26:12.255Z,10.67
2016-12-27T11:27:22.279Z,10.76
2016-12-27T11:28:32.608Z,10.83
2016-12-27T11:29:42.938Z,10.8
2016-12-27T11:30:52.659Z,10.88
2016-12-27T11:32:03.059Z,10.79
2016-12-27T11:33:13.087Z,10.9
2016-12-27T11:34:23.401Z,10.79
2016-12-27T11:35:33.420Z,10.77
2016-12-27T11:36:43.452Z,10.75
2016-12-27T11:37:53.656Z,10.79
2016-12-27T11:39:03.996Z,10.79
2016-12-27T11:40:14.048Z,10.66
2016-12-27T11:41:24.084Z,10.7
2016-12-27T11:42:34.127Z,10.63
2016-12-27T11:43:43.537Z,10.69
2016-12-27T11:44:53.882Z,10.66
2016-12-27T11:46:03.597Z,10.63
2016-12-27T11:47:13.940Z,10.72
2016-12-27T11:48:23.979Z,10.73
2016-12-27T11:49:33.991Z,10.73
2016-12-27T11:50:44.337Z,10.77
2016-12-27T11:51:54.372Z,10.84
2016-12-27T11:53:04.710Z,11.09
2016-12-27T11:54:15.039Z,11.16
2016-12-27T11:55:25.058Z,11.21
2016-12-27T11:56:35.384Z,11.7
2016-12-27T11:57:45.422Z,11.85
2016-12-27T11:58:55.442Z,11.84
2016-12-27T12:00:05.470Z,11.73
2016-12-27T12:01:15.812Z,11.79
2016-12-27T12:02:26.159Z,11.79
2016-12-27T12:03:36.179Z,11.64
2016-12-27T12:04:46.211Z,11.66
2016-12-27T12:05:55.608Z,11.67
2016-12-27T12:07:05.964Z,11.53
2016-12-27T12:08:15.980Z,11.53
2016-12-27T12:09:25.993Z,11.67
2016-12-27T12:10:36.328Z,11.81
2016-12-27T12:11:46.666Z,11.68
2016-12-27T12:12:56.685Z,11.67
2016-12-27T12:14:06.410Z,11.6
2016-12-27T12:15:16.447Z,11.45
2016-12-27T12:16:26.808Z,11.38
2016-12-27T12:17:37.144Z,11.35
2016-12-27T12:18:46.864Z,11.31
2016-12-27T12:19:56.883Z,11.23
2016-12-27T12:21:06.914Z,11.18
2016-12-27T12:22:17.237Z,11.21
2016-12-27T12:23:27.610Z,11.1
2016-12-27T12:24:37.652Z,11.15
2016-12-27T12:25:47.986Z,11.06
2016-12-27T12:26:58.018Z,11.09
2016-12-27T12:28:08.360Z,11.12
2016-12-27T12:29:18.727Z,11.2
2016-12-27T12:30:29.094Z,11.2
2016-12-27T12:31:39.445Z,11.33
2016-12-27T12:32:49.148Z,11.34
2016-12-27T12:33:59.484Z,11.6
2016-12-27T12:35:09.496Z,11.57
2016-12-27T12:36:19.202Z,11.42
2016-12-27T12:37:29.226Z,11.39
2016-12-27T12:38:39.552Z,11.31
2016-12-27T12:39:49.622Z,11.23
2016-12-27T12:40:59.665Z,11.23
2016-12-27T12:42:09.700Z,11.23
2016-12-27T12:43:19.714Z,11.24
2016-12-27T12:44:30.040Z,11.27
2016-12-27T12:45:40.387Z,11.18
2016-12-27T12:46:50.411Z,11.28
2016-12-27T12:48:00.759Z,11.39
2016-12-27T12:49:11.121Z,11.33
2016-12-27T12:50:21.472Z,11.2
2016-12-27T12:51:31.180Z,11.2
2016-12-27T12:52:40.889Z,11.23
2016-12-27T12:53:50.594Z,11.27
2016-12-27T12:55:00.947Z,11.18
2016-12-27T12:56:11.311Z,11.39
2016-12-27T12:57:21.345Z,11.23
2016-12-27T12:58:31.686Z,11.39
2016-12-27T12:59:41.730Z,11.49
2016-12-27T13:00:51.743Z,11.67
2016-12-27T13:02:01.797Z,11.42
2016-12-27T13:03:12.147Z,11.66
2016-12-27T13:04:22.175Z,11.79
2016-12-27T13:05:32.509Z,11.97
2016-12-27T13:06:42.231Z,12.15
2016-12-27T13:07:52.300Z,12.08
2016-12-27T13:09:02.650Z,12.01
2016-12-27T13:10:12.382Z,12.11
2016-12-27T13:11:22.724Z,12.04
2016-12-27T13:12:32.754Z,11.73
2016-12-27T13:13:42.791Z,11.7
2016-12-27T13:14:53.119Z,11.52
2016-12-27T13:16:03.459Z,11.35
2016-12-27T13:17:13.797Z,11.42
2016-12-27T13:18:23.822Z,11.27
2016-12-27T13:19:33.844Z,11.27
2016-12-27T13:20:44.171Z,11.48
2016-12-27T13:21:54.502Z,11.56
2016-12-27T13:23:04.554Z,11.64
2016-12-27T13:24:14.895Z,11.51
2016-12-27T13:25:25.248Z,11.56
2016-12-27T13:26:35.334Z,11.68
2016-12-27T13:27:45.383Z,11.45
2016-12-27T13:28:55.098Z,11.38
2016-12-27T13:30:05.116Z,11.42
2016-12-27T13:31:15.477Z,11.45
2016-12-27T13:32:25.794Z,11.42
2016-12-27T13:33:35.506Z,11.61
2016-12-27T13:34:45.227Z,11.52
2016-12-27T13:35:55.564Z,11.66
2016-12-27T13:37:05.615Z,11.67
2016-12-27T13:38:15.653Z,11.6
2016-12-27T13:39:26.027Z,11.41
2016-12-27T13:40:35.742Z,11.27
2016-12-27T13:41:45.463Z,11.24
2016-12-27T13:42:55.495Z,11.33
2016-12-27T13:44:05.841Z,11.45
2016-12-27T13:45:16.194Z,11.49
2016-12-27T13:46:26.216Z,11.51
2016-12-27T13:47:36.258Z,11.27
2016-12-27T13:48:46.269Z,11.33
2016-12-27T13:49:56.607Z,11.12
2016-12-27T13:51:06.625Z,11.2
2016-12-27T13:52:16.349Z,11.31
2016-12-27T13:53:25.762Z,11.34
2016-12-27T13:54:35.181Z,11.35
2016-12-27T13:55:45.207Z,11.43
2016-12-27T13:56:55.552Z,11.35
2016-12-27T13:58:05.578Z,11.12
2016-12-27T13:59:15.621Z,11.05
2016-12-27T14:00:25.642Z,11.05
2016-12-27T14:01:35.960Z,11.06
2016-12-27T14:02:45.981Z,11.03
2016-12-27T14:03:55.999Z,11.16
2016-12-27T14:05:06.331Z,11.05
2016-12-27T14:06:16.677Z,11.08
2016-12-27T14:07:26.408Z,10.9
2016-12-27T14:08:36.125Z,10.75
2016-12-27T14:09:46.490Z,10.67
2016-12-27T14:10:56.510Z,10.55
2016-12-27T14:12:06.553Z,10.39
2016-12-27T14:13:16.881Z,10.35
2016-12-27T14:14:27.214Z,10.35
2016-12-27T14:15:37.228Z,10.31
2016-12-27T14:16:47.258Z,10.15
2016-12-27T14:17:57.275Z,10.11
2016-12-27T14:19:06.990Z,10.15
2016-12-27T14:20:16.706Z,10.11
2016-12-27T14:21:27.059Z,10.11
2016-12-27T14:22:37.392Z,10
2016-12-27T14:23:47.728Z,9.98
2016-12-27T14:24:57.771Z,9.99
2016-12-27T14:26:07.781Z,9.82
2016-12-27T14:27:17.508Z,9.74
2016-12-27T14:28:27.835Z,9.64
2016-12-27T14:29:37.243Z,9.66
2016-12-27T14:30:47.270Z,9.56
2016-12-27T14:31:57.290Z,9.44
2016-12-27T14:33:07.633Z,9.41
2016-12-27T14:34:17.999Z,9.38
2016-12-27T14:35:28.336Z,9.35
2016-12-27T14:36:38.659Z,9.37
2016-12-27T14:37:48.688Z,9.27
2016-12-27T14:38:58.721Z,9.24
2016-12-27T14:40:08.753Z,9.16
2016-12-27T14:41:18.465Z,9.21
2016-12-27T14:42:28.856Z,9.16
2016-12-27T14:43:39.194Z,9.12
2016-12-27T14:44:49.542Z,9.16
2016-12-27T14:45:59.239Z,9.12
2016-12-27T14:47:09.259Z,9.21
2016-12-27T14:48:18.985Z,9.2
2016-12-27T14:49:29.309Z,9.11
2016-12-27T14:50:39.364Z,9.16
2016-12-27T14:51:49.381Z,9.14
2016-12-27T14:52:59.395Z,9.01
2016-12-27T14:54:09.115Z,9.12
2016-12-27T14:55:19.139Z,9.14
2016-12-27T14:56:28.849Z,9.04
2016-12-27T14:57:38.880Z,9.04
2016-12-27T14:58:48.612Z,9.12
2016-12-27T14:59:58.937Z,9.08
2016-12-27T15:01:09.271Z,9.12
2016-12-27T15:02:19.614Z,9.04
2016-12-27T15:03:29.942Z,9.03
2016-12-27T15:04:39.996Z,9.19
2016-12-27T15:05:50.018Z,9.16
2016-12-27T15:06:59.725Z,9.12
2016-12-27T15:08:09.442Z,9.19
2016-12-27T15:09:19.182Z,9.26
2016-12-27T15:10:29.200Z,9.21
2016-12-27T15:11:39.523Z,9.21
2016-12-27T15:12:49.228Z,9.21
2016-12-27T15:13:58.947Z,9.21
2016-12-27T15:15:08.985Z,9.21
2016-12-27T15:16:19.325Z,9.21
2016-12-27T15:17:29.347Z,9.3
2016-12-27T15:18:39.365Z,9.24
2016-12-27T15:19:49.399Z,9.24
2016-12-27T15:20:59.740Z,9.21
2016-12-27T15:22:10.083Z,9.21
2016-12-27T15:23:20.110Z,9.27
2016-12-27T15:24:29.812Z,9.14
2016-12-27T15:25:39.519Z,9.16
2016-12-27T15:26:48.921Z,9.05
2016-12-27T15:27:58.945Z,9.14
2016-12-27T15:29:08.985Z,9.16
2016-12-27T15:30:19.020Z,9.08
2016-12-27T15:31:29.368Z,9.16
2016-12-27T15:32:39.754Z,9.11
2016-12-27T15:33:49.771Z,9.08
2016-12-27T15:35:00.108Z,8.95
2016-12-27T15:36:09.831Z,9.01
2016-12-27T15:37:19.536Z,8.98
2016-12-27T15:38:29.888Z,9.09
2016-12-27T15:39:40.222Z,9.05
2016-12-27T15:40:49.933Z,9.01
2016-12-27T15:41:59.639Z,8.98
2016-12-27T15:43:09.977Z,9.11
2016-12-27T15:44:19.987Z,8.94
2016-12-27T15:45:29.696Z,9.08
2016-12-27T15:46:39.777Z,9.16
2016-12-27T15:47:49.803Z,9.16
2016-12-27T15:48:59.824Z,9.16
2016-12-27T15:50:09.841Z,9.17
2016-12-27T15:51:20.188Z,9.12
2016-12-27T15:52:30.526Z,9.2
2016-12-27T15:53:40.247Z,9.27
2016-12-27T15:54:50.593Z,9.19
2016-12-27T15:56:00.931Z,9.21
2016-12-27T15:57:10.967Z,9.19